createdAt,value
2023-12-20T00:01:38.748Z,98209.89
2023-12-20T00:06:44.529Z,98197.77
2023-12-20T00:11:50.195Z,98199.13
2023-12-20T00:16:55.840Z,98186.48
2023-12-20T00:22:01.899Z,98169.45
2023-12-20T00:27:08.147Z,98161.52
2023-12-20T00:32:13.731Z,98172.44
2023-12-20T00:37:19.434Z,98168.55
2023-12-20T00:42:25.063Z,98174.94
2023-12-20T00:47:30.633Z,98167.96
2023-12-20T00:52:36.512Z,98162.08
2023-12-20T00:57:42.418Z,98139.11
2023-12-20T01:02:48.017Z,98122.50
2023-12-20T01:07:53.751Z,98110.27
2023-12-20T01:12:59.468Z,98117.55
2023-12-20T01:18:05.475Z,98110.02
2023-12-20T01:23:11.669Z,98094.52
2023-12-20T01:28:17.344Z,98094.34
2023-12-20T01:33:22.918Z,98078.86
2023-12-20T01:38:28.567Z,98074.89
2023-12-20T01:43:44.136Z,98096.50
2023-12-20T01:48:56.561Z,98095.93
2023-12-20T01:54:03.783Z,98101.49
2023-12-20T01:59:10.978Z,98081.15
2023-12-20T02:04:18.179Z,98083.48
2023-12-20T02:09:24.568Z,98064.89
2023-12-20T02:14:30.572Z,98066.58
2023-12-20T02:19:36.366Z,98076.64
2023-12-20T02:24:42.443Z,98072.47
2023-12-20T02:29:49.045Z,98074.20
2023-12-20T02:34:54.677Z,98075.98
2023-12-20T02:40:00.462Z,98069.31
2023-12-20T02:45:06.926Z,98065.59
2023-12-20T02:50:12.844Z,98046.77
2023-12-20T02:55:18.983Z,98058.43
2023-12-20T03:00:25.289Z,98048.69
2023-12-20T03:05:31.235Z,98044.53
2023-12-20T03:10:36.934Z,98052.51
2023-12-20T03:15:42.725Z,98050.52
2023-12-20T03:20:51.088Z,98052.14
2023-12-20T03:25:56.870Z,98049.91
2023-12-20T03:31:03.680Z,98048.05
2023-12-20T03:36:10.152Z,98055.41
2023-12-20T03:41:15.798Z,98053.77
2023-12-20T03:46:21.496Z,98049.52
2023-12-20T03:51:27.124Z,98056.71
2023-12-20T03:56:32.735Z,98058.92
2023-12-20T04:01:38.581Z,98057.89
2023-12-20T04:06:44.534Z,98060.02
2023-12-20T04:11:50.463Z,98062.42
2023-12-20T04:16:56.140Z,98062.08
2023-12-20T04:22:01.828Z,98064.89
2023-12-20T04:27:07.944Z,98063.57
2023-12-20T04:32:13.577Z,98070.09
2023-12-20T04:37:19.412Z,98068.09
2023-12-20T04:42:25.262Z,98057.52
2023-12-20T04:47:31.067Z,98050.83
2023-12-20T04:52:36.858Z,98045.00
2023-12-20T04:57:44.570Z,98039.20
2023-12-20T05:02:50.365Z,98031.35
2023-12-20T05:07:56.161Z,98028.98
2023-12-20T05:13:01.800Z,98028.66
2023-12-20T05:18:08.333Z,98032.89
2023-12-20T05:23:14.522Z,98035.08
2023-12-20T05:28:20.502Z,98039.77
2023-12-20T05:33:26.254Z,98039.30
2023-12-20T05:38:31.979Z,98035.84
2023-12-20T05:43:37.709Z,98033.38
2023-12-20T05:48:43.405Z,98029.07
2023-12-20T05:53:51.272Z,98026.77
2023-12-20T05:58:56.997Z,98033.20
2023-12-20T06:04:04.698Z,98030.98
2023-12-20T06:09:10.611Z,98032.94
2023-12-20T06:14:16.444Z,98039.25
2023-12-20T06:19:22.185Z,98031.84
2023-12-20T06:24:29.527Z,98034.06
2023-12-20T06:29:35.990Z,98041.89
2023-12-20T06:34:41.707Z,98045.60
2023-12-20T06:39:47.683Z,98048.98
2023-12-20T06:44:53.317Z,98055.80
2023-12-20T06:49:59.531Z,98059.84
2023-12-20T06:55:05.871Z,98059.47
2023-12-20T07:00:14.282Z,98057.51
2023-12-20T07:05:21.659Z,98065.09
2023-12-20T07:10:27.311Z,98068.02
2023-12-20T07:15:32.930Z,98065.62
2023-12-20T07:20:38.572Z,98066.56
2023-12-20T07:25:44.314Z,98072.02
2023-12-20T07:30:50.082Z,98074.56
2023-12-20T07:35:56.233Z,98074.04
2023-12-20T07:41:01.998Z,98080.01
2023-12-20T07:46:11.325Z,98084.73
2023-12-20T07:51:17.452Z,98081.28
2023-12-20T07:56:23.867Z,98088.61
2023-12-20T08:01:29.575Z,98086.46
2023-12-20T08:06:35.340Z,98081.42
2023-12-20T08:11:40.969Z,98079.05
2023-12-20T08:16:46.812Z,98084.86
2023-12-20T08:21:52.624Z,98083.79
2023-12-20T08:26:58.912Z,98077.71
2023-12-20T08:32:05.178Z,98077.31
2023-12-20T08:37:10.940Z,98076.34
2023-12-20T08:42:16.997Z,98083.63
2023-12-20T08:47:22.669Z,98092.14
2023-12-20T08:52:28.975Z,98092.84
2023-12-20T08:57:35.044Z,98093.75
2023-12-20T09:02:41.022Z,98095.31
2023-12-20T09:07:47.341Z,98092.25
2023-12-20T09:12:57.414Z,98090.23
2023-12-20T09:18:03.827Z,98084.27
2023-12-20T09:23:09.499Z,98078.34
2023-12-20T09:28:15.341Z,98083.92
2023-12-20T09:33:21.084Z,98078.40
2023-12-20T09:38:27.099Z,98078.89
2023-12-20T09:43:33.566Z,98072.86
2023-12-20T09:48:38.591Z,98068.66
2023-12-20T09:53:46.524Z,98067.91
2023-12-20T09:58:52.553Z,98060.98
2023-12-20T10:03:59.871Z,98059.98
2023-12-20T10:09:07.082Z,98057.46
2023-12-20T10:14:15.474Z,98056.88
2023-12-20T10:19:23.396Z,98060.66
2023-12-20T10:24:30.700Z,98057.44
2023-12-20T10:29:38.711Z,98057.94
2023-12-20T10:34:44.972Z,98059.23
2023-12-20T10:39:57.076Z,98061.92
2023-12-20T10:45:03.190Z,98064.12
2023-12-20T10:50:11.588Z,98060.03
2023-12-20T10:55:17.556Z,98063.78
2023-12-20T11:00:25.469Z,98056.93
2023-12-20T11:05:41.244Z,98056.89
2023-12-20T11:10:57.853Z,98059.90
2023-12-20T11:16:04.588Z,98047.86
2023-12-20T11:21:10.300Z,98045.77
2023-12-20T11:26:24.696Z,98036.74
2023-12-20T11:31:30.778Z,98033.04
2023-12-20T11:36:36.732Z,98031.79
2023-12-20T11:41:42.396Z,98038.60
2023-12-20T11:46:48.599Z,98036.40
2023-12-20T11:51:54.248Z,98034.88
2023-12-20T11:57:00.643Z,98035.31
2023-12-20T12:02:06.728Z,98028.04
2023-12-20T12:07:12.548Z,98022.36
2023-12-20T12:12:20.301Z,98014.56
2023-12-20T12:17:26.653Z,98026.44
2023-12-20T12:22:32.556Z,98017.37
2023-12-20T12:27:39.374Z,98015.99
2023-12-20T12:32:46.186Z,98010.16
2023-12-20T12:37:51.902Z,98009.00
2023-12-20T12:42:57.601Z,98005.82
2023-12-20T12:48:03.689Z,98012.66
2023-12-20T12:53:09.406Z,98017.64
2023-12-20T12:58:15.230Z,98016.12
2023-12-20T13:03:20.950Z,98010.39
2023-12-20T13:08:27.150Z,98005.25
2023-12-20T13:13:32.905Z,97997.57
2023-12-20T13:18:38.837Z,97996.05
2023-12-20T13:23:45.305Z,97993.77
2023-12-20T13:28:51.095Z,97984.78
2023-12-20T13:33:56.900Z,97988.52
2023-12-20T13:39:04.297Z,97991.80
2023-12-20T13:44:10.451Z,98000.20
2023-12-20T13:49:16.189Z,97995.09
2023-12-20T13:54:23.627Z,98003.16
2023-12-20T13:59:29.524Z,98000.85
2023-12-20T14:04:41.859Z,98008.27
2023-12-20T14:09:49.752Z,98002.60
2023-12-20T14:14:57.366Z,97993.89
2023-12-20T14:20:03.057Z,97988.20
2023-12-20T14:25:11.437Z,97991.04
2023-12-20T14:30:18.427Z,97991.67
2023-12-20T14:35:24.341Z,97982.28
2023-12-20T14:40:30.582Z,97989.80
2023-12-20T14:45:37.144Z,97992.81
2023-12-20T14:50:42.109Z,98011.52
2023-12-20T14:55:48.398Z,98016.34
2023-12-20T15:00:54.229Z,98018.16
2023-12-20T15:06:00.956Z,98002.52
2023-12-20T15:11:06.788Z,97991.98
2023-12-20T15:16:12.456Z,97989.45
2023-12-20T15:21:18.423Z,97996.48
2023-12-20T15:26:24.126Z,98002.50
2023-12-20T15:31:30.368Z,97988.84
2023-12-20T15:36:36.918Z,97992.95
2023-12-20T15:41:42.639Z,97986.25
2023-12-20T15:46:48.477Z,97986.89
2023-12-20T15:51:54.314Z,97984.04
2023-12-20T15:57:00.324Z,97981.21
2023-12-20T16:02:06.171Z,97979.05
2023-12-20T16:07:11.929Z,97980.90
2023-12-20T16:12:17.982Z,97982.52
2023-12-20T16:17:23.651Z,97992.16
2023-12-20T16:22:29.320Z,97992.64
2023-12-20T16:27:35.726Z,97983.13
2023-12-20T16:32:41.692Z,97983.65
2023-12-20T16:37:47.623Z,97984.02
2023-12-20T16:42:54.241Z,97979.58
2023-12-20T16:47:59.969Z,97986.93
2023-12-20T16:53:05.803Z,97985.58
2023-12-20T16:58:13.177Z,97982.19
2023-12-20T17:03:21.427Z,97990.77
2023-12-20T17:08:27.628Z,97995.15
2023-12-20T17:13:34.411Z,97985.31
2023-12-20T17:18:40.982Z,97980.64
2023-12-20T17:23:47.476Z,97974.23
2023-12-20T17:28:53.049Z,97969.77
2023-12-20T17:33:58.912Z,97966.83
2023-12-20T17:39:05.858Z,97969.19
2023-12-20T17:44:13.821Z,97970.19
2023-12-20T17:49:20.619Z,97958.23
2023-12-20T17:54:27.035Z,97958.11
2023-12-20T17:59:32.847Z,97960.81
2023-12-20T18:04:38.551Z,97971.45
2023-12-20T18:09:44.266Z,97972.15
2023-12-20T18:14:52.665Z,97960.78
2023-12-20T18:20:00.974Z,97950.30
2023-12-20T18:25:08.076Z,97951.93
2023-12-20T18:30:17.192Z,97957.88
2023-12-20T18:35:23.462Z,97963.80
2023-12-20T18:40:30.616Z,97965.79
2023-12-20T18:45:36.422Z,97966.73
2023-12-20T18:50:42.213Z,97967.08
2023-12-20T18:55:48.176Z,97951.25
2023-12-20T19:00:54.230Z,97934.17
2023-12-20T19:06:03.308Z,97940.63
2023-12-20T19:11:09.266Z,97940.86
2023-12-20T19:16:15.030Z,97949.89
2023-12-20T19:21:21.018Z,97949.48
2023-12-20T19:26:26.708Z,97950.70
2023-12-20T19:31:32.541Z,97953.50
2023-12-20T19:36:38.264Z,97947.01
2023-12-20T19:41:43.909Z,97943.23
2023-12-20T19:46:50.999Z,97935.11
2023-12-20T19:51:56.953Z,97944.02
2023-12-20T19:57:03.465Z,97946.34
2023-12-20T20:02:08.800Z,97948.42
2023-12-20T20:07:16.366Z,97950.91
2023-12-20T20:12:22.238Z,97952.79
2023-12-20T20:17:28.043Z,97944.79
2023-12-20T20:22:35.131Z,97939.53
2023-12-20T20:27:41.006Z,97932.05
2023-12-20T20:32:49.918Z,97948.33
2023-12-20T20:37:57.578Z,97967.35
2023-12-20T20:43:04.569Z,97958.42
2023-12-20T20:48:24.779Z,97951.42
2023-12-20T20:53:35.770Z,97932.27
2023-12-20T20:58:43.242Z,97941.92
2023-12-20T21:03:48.869Z,97934.55
2023-12-20T21:08:55.338Z,97944.17
2023-12-20T21:14:00.914Z,97935.81
2023-12-20T21:19:07.688Z,97937.23
2023-12-20T21:24:15.948Z,97943.19
2023-12-20T21:29:21.603Z,97935.21
2023-12-20T21:34:27.532Z,97932.11
2023-12-20T21:39:33.184Z,97930.37
2023-12-20T21:44:38.935Z,97932.36
2023-12-20T21:49:44.624Z,97919.39
2023-12-20T21:54:50.361Z,97922.45
2023-12-20T21:59:56.219Z,97925.89
2023-12-20T22:05:01.828Z,97923.83
2023-12-20T22:10:09.693Z,97917.86
2023-12-20T22:15:15.483Z,97916.22
2023-12-20T22:20:21.275Z,97916.63
2023-12-20T22:25:27.042Z,97907.20
2023-12-20T22:30:32.748Z,97910.83
2023-12-20T22:35:38.391Z,97908.56
2023-12-20T22:40:44.106Z,97904.36
2023-12-20T22:45:49.864Z,97911.62
2023-12-20T22:50:55.501Z,97912.60
2023-12-20T22:56:01.302Z,97904.25
2023-12-20T23:01:07.419Z,97897.42
2023-12-20T23:06:14.393Z,97888.20
2023-12-20T23:11:20.626Z,97883.83
2023-12-20T23:16:26.279Z,97880.08
2023-12-20T23:21:31.904Z,97871.17
2023-12-20T23:26:39.663Z,97855.92
2023-12-20T23:31:45.344Z,97849.89
2023-12-20T23:36:51.073Z,97838.48
2023-12-20T23:41:57.644Z,97833.42
2023-12-20T23:47:01.725Z,97829.23
2023-12-20T23:52:08.301Z,97827.84
2023-12-20T23:57:14.894Z,97814.63
